Time;durP1;ratioP1;P1;durP2;ratioP2;P2;SDS_P1;SDS_P2;PMS_P1;PMS_P2;Temp;Humidity;BMP_temperature;BMP_pressure;BME280_temperature;BME280_humidity;BME280_pressure;Samples;Min_cycle;Max_cycle;Signal;HPM_P1;HPM_P2
2023/04/19 00:01:29;;;;;;;1.60;1.50;;;;;;;15.10;58.56;94228.63;5108879;28;20268;-47
2023/04/19 00:03:57;;;;;;;1.57;1.47;;;;;;;15.05;58.41;94212.91;5108588;28;20195;-47
2023/04/19 00:06:24;;;;;;;1.80;1.70;;;;;;;15.12;58.69;94225.91;5109504;28;20191;-49
2023/04/19 00:08:51;;;;;;;1.50;1.40;;;;;;;15.11;58.58;94214.81;5109533;28;20221;-48
2023/04/19 00:11:18;;;;;;;1.67;1.57;;;;;;;15.11;58.41;94227.69;5108980;28;20189;-49
2023/04/19 00:13:44;;;;;;;1.53;1.43;;;;;;;15.11;58.46;94216.56;5109154;28;20205;-47
2023/04/19 00:16:11;;;;;;;1.77;1.67;;;;;;;15.11;58.68;94222.53;5109357;28;20227;-48
2023/04/19 00:18:38;;;;;;;1.70;1.60;;;;;;;15.11;58.62;94219.13;5098304;28;20243;-49
2023/04/19 00:21:06;;;;;;;1.50;1.50;;;;;;;15.11;58.52;94219.13;5089482;28;20643;-46
2023/04/19 00:23:33;;;;;;;1.50;1.40;;;;;;;15.11;58.61;94213.97;5088474;28;20194;-55
2023/04/19 00:26:02;;;;;;;1.60;1.50;;;;;;;15.10;58.72;94212.38;5088945;28;20629;-50
2023/04/19 00:28:29;;;;;;;1.80;1.70;;;;;;;15.10;58.53;94214.97;5088257;28;20204;-48
2023/04/19 00:30:56;;;;;;;1.80;1.70;;;;;;;15.10;58.61;94207.25;5088928;28;20216;-48
2023/04/19 00:33:23;;;;;;;1.70;1.60;;;;;;;15.06;58.83;94204.22;5088472;28;20197;-50
2023/04/19 00:35:49;;;;;;;1.63;1.53;;;;;;;15.05;58.53;94203.41;5088869;28;20198;-47
2023/04/19 00:38:18;;;;;;;2.60;2.00;;;;;;;15.07;58.74;94203.25;5088930;28;20658;-48
2023/04/19 00:40:45;;;;;;;1.70;1.60;;;;;;;15.06;58.55;94210.16;5091234;28;20194;-48
2023/04/19 00:43:12;;;;;;;1.83;1.73;;;;;;;15.03;58.89;94202.00;5092363;28;20294;-48
2023/04/19 00:45:39;;;;;;;2.20;1.70;;;;;;;15.05;58.81;94200.84;5097622;28;20873;-50
2023/04/19 00:48:06;;;;;;;1.63;1.53;;;;;;;15.05;58.82;94200.03;5113146;28;20200;-46
2023/04/19 00:50:34;;;;;;;2.10;1.90;;;;;;;15.06;58.89;94201.63;5112610;28;20275;-48
2023/04/19 00:53:02;;;;;;;4.27;2.10;;;;;;;14.96;58.91;94180.50;5112688;28;20193;-49
2023/04/19 00:55:30;;;;;;;1.90;1.80;;;;;;;15.04;58.84;94196.69;5112548;28;20549;-48
2023/04/19 00:57:57;;;;;;;3.80;1.93;;;;;;;15.04;58.99;94196.69;5112403;28;20224;-49
2023/04/19 01:00:24;;;;;;;1.77;1.67;;;;;;;14.89;58.86;94171.88;5105492;28;20322;-50
2023/04/19 01:02:51;;;;;;;1.70;1.60;;;;;;;15.04;58.69;94201.03;5105492;28;20285;-49
2023/04/19 01:05:18;;;;;;;1.77;1.67;;;;;;;15.03;58.83;94196.88;5112319;28;20189;-46
2023/04/19 01:07:45;;;;;;;1.80;1.70;;;;;;;15.02;58.78;94196.03;5112657;28;20189;-52
2023/04/19 01:10:11;;;;;;;8.07;1.67;;;;;;;15.00;58.99;94187.69;5112013;28;20225;-50
2023/04/19 01:12:39;;;;;;;1.60;1.50;;;;;;;15.00;59.07;94184.34;5112078;28;20193;-49
2023/04/19 01:15:08;;;;;;;2.10;1.83;;;;;;;15.00;59.08;94184.34;5105724;28;20190;-50
2023/04/19 01:17:35;;;;;;;2.83;1.87;;;;;;;15.00;59.05;94186.91;5092090;28;20232;-49
2023/04/19 01:20:05;;;;;;;1.97;1.77;;;;;;;14.93;59.01;94176.50;5092407;28;20185;-48
2023/04/19 01:22:33;;;;;;;1.90;1.80;;;;;;;14.96;59.08;94183.88;5092312;28;20212;-49
2023/04/19 01:25:00;;;;;;;1.83;1.73;;;;;;;14.93;59.14;94173.13;5092084;28;20193;-48
2023/04/19 01:27:27;;;;;;;2.00;1.80;;;;;;;14.93;59.01;94180.84;5091773;28;20639;-47
2023/04/19 01:29:54;;;;;;;1.80;1.70;;;;;;;14.89;59.13;94175.25;5097717;28;20197;-48
2023/04/19 01:32:20;;;;;;;1.80;1.70;;;;;;;14.90;59.11;94184.59;5111425;28;20221;-48
2023/04/19 01:34:48;;;;;;;1.53;1.43;;;;;;;14.87;59.39;94179.00;5112219;28;20196;-48
2023/04/19 01:37:15;;;;;;;1.90;1.80;;;;;;;14.89;59.30;94188.13;5111955;28;20281;-48
2023/04/19 01:39:43;;;;;;;2.03;1.70;;;;;;;14.88;59.27;94181.38;5111590;28;20274;-48
2023/04/19 01:42:11;;;;;;;2.07;1.90;;;;;;;14.87;59.37;94184.16;5111514;28;20200;-47
2023/04/19 01:44:38;;;;;;;2.03;1.80;;;;;;;14.86;59.51;94182.56;5109914;28;20192;-49
2023/04/19 01:47:05;;;;;;;1.87;1.77;;;;;;;14.85;59.60;94183.50;5111333;28;20254;-48
2023/04/19 01:49:32;;;;;;;2.03;1.93;;;;;;;14.78;59.66;94171.34;5111584;28;20574;-48
2023/04/19 01:51:59;;;;;;;4.37;1.80;;;;;;;14.85;59.51;94184.31;5109610;28;20642;-49
2023/04/19 01:54:26;;;;;;;2.30;1.80;;;;;;;14.84;59.57;94180.13;5111834;28;20280;-49
2023/04/19 01:56:55;;;;;;;3.33;2.10;;;;;;;14.84;59.55;94180.13;5111271;28;20252;-48
2023/04/19 01:59:21;;;;;;;1.80;1.70;;;;;;;14.83;59.65;94181.13;5110451;28;20181;-48
2023/04/19 02:01:48;;;;;;;1.90;1.80;;;;;;;14.81;59.79;94180.50;5111516;28;20189;-48
2023/04/19 02:04:15;;;;;;;2.10;1.70;;;;;;;14.82;59.72;94179.53;5111171;28;20613;-48
2023/04/19 02:06:42;;;;;;;1.70;1.60;;;;;;;14.80;59.58;94179.69;5111198;28;20201;-49
2023/04/19 02:09:08;;;;;;;1.70;1.60;;;;;;;14.80;59.90;94176.31;5111202;28;20220;-49
2023/04/19 02:11:35;;;;;;;2.07;1.87;;;;;;;14.77;59.66;94187.78;5111039;28;20325;-47
2023/04/19 02:14:03;;;;;;;2.03;1.83;;;;;;;14.76;59.99;94182.78;5104921;28;20196;-48
2023/04/19 02:16:30;;;;;;;2.90;1.63;;;;;;;14.73;60.00;94181.38;5090824;28;20545;-50
2023/04/19 02:18:57;;;;;;;2.57;1.70;;;;;;;14.71;60.06;94182.53;5090820;28;20220;-49
2023/04/19 02:21:24;;;;;;;1.90;1.80;;;;;;;14.71;60.06;94183.31;5090699;28;20190;-47
2023/04/19 02:23:51;;;;;;;1.97;1.87;;;;;;;14.70;60.20;94180.94;5090472;28;20271;-50
2023/04/19 02:26:19;;;;;;;1.63;1.53;;;;;;;14.68;60.25;94181.13;5090595;28;20296;-49
2023/04/19 02:28:45;;;;;;;2.07;1.87;;;;;;;14.67;60.18;94183.84;5109626;28;20220;-48
2023/04/19 02:31:14;;;;;;;2.40;2.20;;;;;;;14.65;60.21;94168.59;5110484;28;20530;-47
2023/04/19 02:33:41;;;;;;;3.07;2.07;;;;;;;14.67;60.03;94182.06;5110565;28;20680;-48
2023/04/19 02:36:08;;;;;;;1.80;1.70;;;;;;;14.64;60.36;94169.56;5110894;28;20254;-50
2023/04/19 02:38:35;;;;;;;1.87;1.70;;;;;;;14.65;60.08;94178.88;5110619;28;20751;-48
2023/04/19 02:41:03;;;;;;;1.97;1.80;;;;;;;14.64;60.17;94171.34;5109815;28;20542;-49
2023/04/19 02:43:30;;;;;;;2.17;2.00;;;;;;;14.62;60.12;94173.28;5109782;28;20184;-50
2023/04/19 02:45:56;;;;;;;1.80;1.70;;;;;;;14.59;60.34;94163.31;5110729;28;20200;-49
2023/04/19 02:48:24;;;;;;;1.83;1.73;;;;;;;14.60;60.47;94170.91;5110680;28;20197;-48
2023/04/19 02:50:51;;;;;;;1.73;1.63;;;;;;;14.61;60.24;94169.13;5110111;28;20193;-48
2023/04/19 02:53:18;;;;;;;2.00;1.90;;;;;;;14.58;60.42;94172.81;5110715;28;20678;-47
2023/04/19 02:55:45;;;;;;;2.10;2.00;;;;;;;14.56;60.27;94169.66;5110521;28;20280;-49
2023/04/19 02:58:13;;;;;;;2.50;2.30;;;;;;;14.56;60.43;94161.91;5109689;28;20219;-48
2023/04/19 03:00:40;;;;;;;2.43;2.23;;;;;;;14.58;60.42;94172.81;5109902;28;20224;-49
2023/04/19 03:03:08;;;;;;;1.90;1.80;;;;;;;14.53;60.37;94168.22;5109876;28;20189;-48
2023/04/19 03:05:36;;;;;;;2.10;1.90;;;;;;;14.55;60.52;94171.41;5110244;28;20185;-49
2023/04/19 03:08:03;;;;;;;2.10;2.00;;;;;;;14.55;60.28;94173.19;5110066;28;20254;-48
2023/04/19 03:10:30;;;;;;;2.17;1.97;;;;;;;14.52;60.38;94165.81;5109758;28;20228;-48
2023/04/19 03:12:57;;;;;;;2.10;1.90;;;;;;;14.33;60.19;94138.75;5108799;28;20212;-48
2023/04/19 03:15:23;;;;;;;2.03;1.93;;;;;;;14.52;60.56;94176.09;5110319;28;20277;-49
2023/04/19 03:17:50;;;;;;;2.00;1.90;;;;;;;14.52;60.53;94171.75;5109727;28;20224;-49
2023/04/19 03:20:17;;;;;;;2.23;2.10;;;;;;;14.51;60.47;94167.59;5110067;28;20215;-49
2023/04/19 03:22:46;;;;;;;2.30;2.10;;;;;;;14.50;60.47;94165.19;5109958;28;20280;-49
2023/04/19 03:25:12;;;;;;;2.10;2.00;;;;;;;14.50;60.68;94165.19;5109738;28;20189;-49
2023/04/19 03:27:39;;;;;;;2.10;1.90;;;;;;;14.50;60.64;94162.59;5104663;28;20196;-47
2023/04/19 03:30:08;;;;;;;2.27;2.17;;;;;;;14.49;60.47;94171.31;5089221;28;20189;-48
2023/04/19 03:32:35;;;;;;;2.30;2.10;;;;;;;14.47;60.66;94163.75;5089099;28;20190;-49
2023/04/19 03:35:02;;;;;;;2.23;2.00;;;;;;;14.46;60.72;94169.84;5089511;28;20262;-48
2023/04/19 03:37:29;;;;;;;2.43;2.23;;;;;;;14.46;60.64;94172.41;5089042;28;20225;-49
2023/04/19 03:39:57;;;;;;;2.20;2.07;;;;;;;14.44;60.52;94160.72;5089227;28;20266;-50
2023/04/19 03:42:24;;;;;;;1.90;1.80;;;;;;;14.44;60.61;94171.78;5088998;28;20612;-49
2023/04/19 03:44:50;;;;;;;2.30;2.10;;;;;;;14.42;60.81;94172.94;5089407;28;20193;-48
2023/04/19 03:47:17;;;;;;;3.40;2.37;;;;;;;14.36;60.71;94163.34;5089336;28;20193;-48
2023/04/19 03:49:44;;;;;;;2.20;2.10;;;;;;;14.33;60.73;94161.91;5089240;28;20197;-48
2023/04/19 03:52:11;;;;;;;2.10;1.90;;;;;;;14.38;60.91;94167.34;5089485;28;20250;-48
2023/04/19 03:54:37;;;;;;;2.10;2.00;;;;;;;14.38;60.72;94161.38;5088974;28;20246;-48
2023/04/19 03:57:06;;;;;;;2.40;2.30;;;;;;;14.36;60.69;94171.06;5089104;28;20578;-50
2023/04/19 03:59:32;;;;;;;2.67;2.10;;;;;;;14.38;60.80;94159.66;5105659;28;20195;-50
2023/04/19 04:01:59;;;;;;;2.50;2.30;;;;;;;14.38;60.78;94164.78;5109776;28;20713;-49
2023/04/19 04:04:26;;;;;;;2.67;2.17;;;;;;;14.38;60.87;94166.53;5109384;28;20200;-50
2023/04/19 04:06:53;;;;;;;2.23;2.13;;;;;;;14.39;60.94;94163.00;5109752;28;20189;-49
2023/04/19 04:09:19;;;;;;;2.87;2.23;;;;;;;14.28;60.67;94153.91;5109175;28;20229;-47
2023/04/19 04:11:46;;;;;;;4.17;2.40;;;;;;;14.42;60.67;94165.22;5095262;28;20204;-50
2023/04/19 04:14:14;;;;;;;2.27;2.10;;;;;;;14.44;60.67;94165.84;5088863;28;20200;-54
2023/04/19 04:16:41;;;;;;;2.33;2.10;;;;;;;14.44;60.74;94160.72;5092914;28;20213;-48
2023/04/19 04:19:08;;;;;;;2.50;2.33;;;;;;;14.48;60.79;94164.53;5092877;28;20224;-48
2023/04/19 04:21:35;;;;;;;2.40;2.20;;;;;;;14.50;60.60;94172.91;5093029;28;20190;-48
2023/04/19 04:24:02;;;;;;;2.80;2.50;;;;;;;14.50;60.86;94168.53;5093840;28;20189;-49
2023/04/19 04:26:32;;;;;;;1.90;1.80;;;;;;;14.50;60.72;94173.69;5092482;28;20193;-50
2023/04/19 04:29:00;;;;;;;2.73;2.40;;;;;;;14.49;60.66;94173.88;5092795;28;20285;-48
2023/04/19 04:31:28;;;;;;;3.13;2.57;;;;;;;14.52;60.70;94173.53;5103885;28;20189;-49
2023/04/19 04:33:55;;;;;;;2.67;2.47;;;;;;;14.50;60.70;94175.47;5113309;28;20185;-49
2023/04/19 04:36:22;;;;;;;2.60;2.40;;;;;;;14.53;60.65;94175.13;5113086;28;20295;-50
2023/04/19 04:38:49;;;;;;;2.13;2.00;;;;;;;14.53;60.80;94183.66;5097612;28;20216;-52
2023/04/19 04:41:16;;;;;;;3.40;2.37;;;;;;;14.51;60.78;94179.66;5105151;28;20204;-50
2023/04/19 04:43:48;;;;;;;2.60;2.40;;;;;;;14.52;60.72;94181.25;5113123;28;20224;-48
2023/04/19 04:46:14;;;;;;;2.30;2.10;;;;;;;14.52;60.76;94184.63;5111938;28;20189;-50
2023/04/19 04:48:43;;;;;;;2.77;2.50;;;;;;;14.52;60.88;94179.47;5109067;28;20196;-48
2023/04/19 04:51:09;;;;;;;2.83;2.43;;;;;;;14.53;60.78;94182.84;5104117;28;20565;-48
2023/04/19 04:53:36;;;;;;;2.90;2.33;;;;;;;14.11;60.75;94112.09;5112869;28;20546;-48
2023/04/19 04:56:03;;;;;;;2.00;1.90;;;;;;;14.52;60.62;94189.78;5112683;28;20193;-50
2023/04/19 04:58:30;;;;;;;2.90;2.63;;;;;;;14.54;60.65;94181.88;5112854;28;20229;-48
2023/04/19 05:00:57;;;;;;;2.63;2.43;;;;;;;14.54;60.69;94185.25;5112622;28;20185;-50
2023/04/19 05:03:24;;;;;;;2.50;2.30;;;;;;;14.54;60.72;94181.88;5112805;28;20188;-49
2023/04/19 05:05:52;;;;;;;2.57;2.37;;;;;;;14.55;60.79;94180.91;5111751;28;20188;-48
2023/04/19 05:08:19;;;;;;;2.17;2.07;;;;;;;14.57;60.77;94186.66;5112419;28;20658;-47
2023/04/19 05:10:45;;;;;;;4.03;2.70;;;;;;;14.54;60.87;94180.09;5109302;28;20182;-48
2023/04/19 05:13:12;;;;;;;2.13;2.03;;;;;;;14.59;60.75;94187.28;5092651;28;20580;-50
2023/04/19 05:15:39;;;;;;;2.47;2.30;;;;;;;14.61;60.63;94190.50;5093374;28;20181;-49
2023/04/19 05:18:06;;;;;;;2.20;2.10;;;;;;;14.63;60.49;94190.31;5091984;28;20221;-47
2023/04/19 05:20:33;;;;;;;2.70;2.50;;;;;;;14.66;60.62;94193.34;5101978;28;20681;-48
2023/04/19 05:23:02;;;;;;;2.10;1.90;;;;;;;14.68;60.50;94199.13;5112267;28;20221;-49
2023/04/19 05:25:29;;;;;;;2.43;2.23;;;;;;;14.67;60.33;94187.22;5112491;28;20203;-48
2023/04/19 05:27:56;;;;;;;3.43;2.20;;;;;;;14.73;60.45;94196.81;5112636;28;20239;-50
2023/04/19 05:30:23;;;;;;;3.50;2.33;;;;;;;14.74;60.54;94195.06;5112718;28;20268;-49
2023/04/19 05:32:51;;;;;;;2.33;2.17;;;;;;;14.78;60.44;94202.25;5112079;28;20193;-47
2023/04/19 05:35:18;;;;;;;3.97;2.23;;;;;;;14.81;60.57;94201.09;5114196;28;20285;-52
2023/04/19 05:37:45;;;;;;;2.23;1.97;;;;;;;14.84;60.32;94200.72;5113871;28;20267;-50
2023/04/19 05:40:13;;;;;;;2.40;2.30;;;;;;;14.84;60.38;94198.16;5112650;28;20574;-50
2023/04/19 05:42:40;;;;;;;2.73;2.53;;;;;;;14.92;60.21;94199.84;5112247;28;20211;-49
2023/04/19 05:45:08;;;;;;;3.33;2.53;;;;;;;14.96;59.91;94198.53;5111683;28;20602;-48
2023/04/19 05:47:35;;;;;;;2.83;2.63;;;;;;;15.02;60.05;94202.97;5111998;28;20280;-48
2023/04/19 05:50:02;;;;;;;3.27;2.43;;;;;;;15.09;59.96;94200.50;5111807;28;20246;-48
2023/04/19 05:52:29;;;;;;;2.87;2.67;;;;;;;15.13;59.87;94199.97;5111593;28;20277;-48
2023/04/19 05:54:56;;;;;;;2.83;2.30;;;;;;;15.19;60.02;94198.44;5111759;28;20193;-50
2023/04/19 05:57:24;;;;;;;2.53;2.33;;;;;;;15.18;59.82;94184.78;5111972;28;20193;-47
2023/04/19 05:59:51;;;;;;;2.77;2.53;;;;;;;15.30;59.58;94198.00;5111563;28;20235;-49
2023/04/19 06:02:18;;;;;;;2.57;2.37;;;;;;;15.36;59.78;94201.63;5111471;28;20328;-48
2023/04/19 06:04:45;;;;;;;2.53;2.33;;;;;;;15.44;59.58;94204.13;5111675;28;20185;-49
2023/04/19 06:07:12;;;;;;;2.50;2.30;;;;;;;15.45;59.39;94198.78;5099689;28;20654;-49
2023/04/19 06:09:39;;;;;;;2.50;2.30;;;;;;;15.57;59.29;94202.50;5105769;28;20240;-48
2023/04/19 06:12:06;;;;;;;3.00;2.70;;;;;;;15.65;59.18;94208.56;5111459;28;20634;-48
2023/04/19 06:14:34;;;;;;;2.30;2.20;;;;;;;15.65;59.05;94199.06;5111178;28;20196;-49
2023/04/19 06:17:01;;;;;;;2.97;2.30;;;;;;;15.46;60.10;94148.88;5111047;28;20185;-48
2023/04/19 06:19:28;;;;;;;2.87;2.20;;;;;;;16.21;68.36;94209.56;5104638;28;20221;-48
2023/04/19 06:21:55;;;;;;;9.60;2.50;;;;;;;16.43;66.46;94212.16;5110416;28;20280;-48
2023/04/19 06:24:22;;;;;;;6.33;2.40;;;;;;;16.54;65.78;94215.03;5109963;28;20181;-49
2023/04/19 06:26:48;;;;;;;2.83;2.20;;;;;;;16.65;65.65;94210.34;5110504;28;20181;-57
2023/04/19 06:29:15;;;;;;;2.90;2.00;;;;;;;16.86;72.60;94207.75;5108125;28;20192;-48
2023/04/19 06:31:45;;;;;;;6.33;2.70;;;;;;;17.40;72.04;94214.88;5108122;28;20193;-48
2023/04/19 06:34:11;;;;;;;6.87;2.40;;;;;;;17.94;69.94;94208.94;5108225;28;20196;-50
2023/04/19 06:36:38;;;;;;;4.47;2.17;;;;;;;18.30;67.97;94210.38;5107651;28;20189;-48
2023/04/19 06:39:05;;;;;;;2.90;2.33;;;;;;;18.47;66.21;94211.59;5107089;28;20217;-47
2023/04/19 06:41:32;;;;;;;2.33;2.13;;;;;;;18.58;65.19;94215.41;5107410;28;20196;-48
2023/04/19 06:43:59;;;;;;;3.13;2.10;;;;;;;18.67;64.19;94216.03;5107873;28;20200;-46
2023/04/19 06:46:26;;;;;;;3.20;2.30;;;;;;;18.77;63.31;94216.44;5107668;28;20304;-49
2023/04/19 06:48:54;;;;;;;5.40;2.20;;;;;;;18.84;62.66;94219.84;5107696;28;20185;-49
2023/04/19 06:51:21;;;;;;;5.57;2.30;;;;;;;18.87;62.13;94218.63;5107223;28;20960;-48
2023/04/19 06:53:49;;;;;;;3.80;2.37;;;;;;;18.88;61.73;94223.63;5107321;28;20272;-48
2023/04/19 06:56:16;;;;;;;2.13;1.93;;;;;;;18.88;61.13;94225.41;5107765;28;20228;-49
2023/04/19 06:58:43;;;;;;;4.57;2.40;;;;;;;18.93;60.86;94230.78;5107353;28;20216;-49
2023/04/19 07:01:10;;;;;;;3.00;2.40;;;;;;;18.95;60.41;94234.75;5107592;28;20185;-48
2023/04/19 07:03:37;;;;;;;3.70;2.33;;;;;;;18.84;60.11;94208.69;5107037;28;20292;-49
2023/04/19 07:06:05;;;;;;;2.53;2.27;;;;;;;19.06;59.57;94223.00;5107233;28;20185;-49
2023/04/19 07:08:32;;;;;;;3.40;2.47;;;;;;;19.18;59.07;94228.38;5106606;28;20225;-48
2023/04/19 07:10:59;;;;;;;3.83;2.80;;;;;;;19.21;58.76;94215.00;5107271;28;20185;-48
2023/04/19 07:13:26;;;;;;;2.40;2.20;;;;;;;19.44;58.39;94225.72;5107320;28;20258;-48
2023/04/19 07:15:52;;;;;;;2.70;2.50;;;;;;;19.56;58.07;94228.50;5106963;28;20615;-49
2023/04/19 07:18:19;;;;;;;2.50;2.30;;;;;;;19.65;57.68;94229.09;5106564;28;20724;-49
2023/04/19 07:20:48;;;;;;;3.50;2.10;;;;;;;19.71;57.66;94223.09;5107055;28;20189;-49
2023/04/19 07:23:17;;;;;;;4.37;2.23;;;;;;;19.71;57.26;94215.28;5106815;28;20191;-48
2023/04/19 07:25:44;;;;;;;5.53;2.03;;;;;;;19.75;57.03;94229.44;5107440;28;20200;-49
2023/04/19 07:28:10;;;;;;;2.20;2.10;;;;;;;19.71;56.78;94229.06;5106634;28;20624;-49
2023/04/19 07:30:37;;;;;;;2.83;2.30;;;;;;;19.65;56.60;94236.88;5104310;28;20209;-49
2023/04/19 07:33:07;;;;;;;2.40;2.20;;;;;;;19.57;56.61;94232.69;5107095;28;20204;-49
2023/04/19 07:35:34;;;;;;;2.60;2.43;;;;;;;19.48;56.51;94234.69;5107305;28;20274;-47
2023/04/19 07:38:01;;;;;;;2.80;2.17;;;;;;;19.40;56.48;94234.91;5106461;28;20193;-49
2023/04/19 07:40:29;;;;;;;3.13;2.20;;;;;;;19.35;56.53;94231.34;5106637;28;20600;-48
2023/04/19 07:42:56;;;;;;;3.13;2.60;;;;;;;19.33;56.34;94233.31;5107139;28;20263;-47
2023/04/19 07:45:23;;;;;;;2.33;2.23;;;;;;;19.30;56.25;94229.38;5106678;28;20215;-48
2023/04/19 07:47:50;;;;;;;2.40;2.30;;;;;;;19.28;56.10;94237.31;5106836;28;20189;-50
2023/04/19 07:50:17;;;;;;;2.33;2.23;;;;;;;19.25;55.96;94229.94;5107691;28;20546;-47
2023/04/19 07:52:44;;;;;;;3.40;2.50;;;;;;;19.25;55.77;94236.94;5108176;28;20337;-48
2023/04/19 07:55:10;;;;;;;3.90;2.30;;;;;;;19.20;55.60;94229.75;5107195;28;20666;-49
2023/04/19 07:57:39;;;;;;;2.53;2.33;;;;;;;19.20;55.67;94231.56;5108604;28;20234;-48
2023/04/19 08:00:09;;;;;;;2.17;2.03;;;;;;;19.22;55.54;94226.97;5107882;28;20311;-49
2023/04/19 08:02:36;;;;;;;3.00;2.17;;;;;;;19.28;55.39;94228.75;5108068;28;20199;-46
2023/04/19 08:05:03;;;;;;;2.90;2.27;;;;;;;19.28;55.25;94223.56;5106564;28;20197;-48
2023/04/19 08:07:30;;;;;;;2.60;2.40;;;;;;;19.35;55.09;94231.34;5106411;28;20536;-48
2023/04/19 08:09:56;;;;;;;2.50;2.30;;;;;;;19.37;54.99;94232.72;5106169;28;20232;-48
2023/04/19 08:12:23;;;;;;;2.13;2.03;;;;;;;19.35;54.78;94236.53;5106280;28;20189;-48
2023/04/19 08:14:51;;;;;;;2.87;2.60;;;;;;;19.34;54.73;94230.53;5106644;28;20193;-48
2023/04/19 08:17:20;;;;;;;5.43;2.50;;;;;;;19.34;54.76;94235.72;5105908;28;20189;-50
2023/04/19 08:19:48;;;;;;;2.20;2.00;;;;;;;19.32;54.79;94229.16;5106605;28;20772;-50
2023/04/19 08:22:16;;;;;;;2.20;2.10;;;;;;;19.34;54.62;94230.53;5106309;28;20284;-48
2023/04/19 08:24:42;;;;;;;2.50;2.30;;;;;;;19.36;54.56;94241.50;5106074;28;20293;-48
2023/04/19 08:27:10;;;;;;;2.50;2.30;;;;;;;19.39;54.42;94229.94;5106354;28;20189;-48
2023/04/19 08:29:37;;;;;;;2.37;2.13;;;;;;;19.43;54.27;94241.47;5105861;28;20189;-47
2023/04/19 08:32:06;;;;;;;2.60;2.40;;;;;;;19.47;54.03;94229.69;5106156;28;20185;-50
2023/04/19 08:34:35;;;;;;;2.43;2.23;;;;;;;19.51;54.06;94236.88;5106693;28;20202;-48
2023/04/19 08:37:03;;;;;;;2.57;2.37;;;;;;;19.55;53.82;94230.28;5106170;28;20664;-48
2023/04/19 08:39:29;;;;;;;2.70;2.50;;;;;;;19.64;53.73;94232.69;5106246;28;20231;-47
2023/04/19 08:41:56;;;;;;;2.50;2.30;;;;;;;19.73;53.52;94221.88;5105693;28;20193;-49
2023/04/19 08:44:25;;;;;;;2.50;2.30;;;;;;;19.84;53.31;94214.44;5105566;28;20303;-47
2023/04/19 08:46:52;;;;;;;2.40;2.27;;;;;;;19.96;53.15;94220.59;5106308;28;20269;-46
2023/04/19 08:49:21;;;;;;;2.40;2.20;;;;;;;20.02;52.93;94217.94;5105980;28;20213;-49
2023/04/19 08:51:49;;;;;;;2.60;2.40;;;;;;;20.07;52.79;94221.72;5106132;28;20255;-48
2023/04/19 08:54:18;;;;;;;3.60;2.83;;;;;;;20.04;52.87;94202.97;5105157;28;20283;-47
2023/04/19 08:56:45;;;;;;;3.83;2.40;;;;;;;20.27;52.53;94218.00;5104480;28;20208;-46
2023/04/19 08:59:12;;;;;;;2.47;2.30;;;;;;;20.39;52.57;94222.56;5107933;28;20225;-48
2023/04/19 09:01:39;;;;;;;2.47;2.27;;;;;;;20.49;52.16;94213.31;5109823;28;20201;-47
2023/04/19 09:04:07;;;;;;;2.33;2.20;;;;;;;20.56;52.12;94202.88;5112398;28;20193;-48
2023/04/19 09:06:37;;;;;;;2.57;2.33;;;;;;;20.84;51.59;94215.44;5112528;28;20257;-47
2023/04/19 09:09:15;;;;;;;2.90;2.70;;;;;;;21.03;51.32;94209.28;5112035;28;20228;-47
2023/04/19 09:11:42;;;;;;;2.50;2.30;;;;;;;21.22;50.99;94214.53;5112303;28;20220;-50
2023/04/19 09:14:09;;;;;;;2.50;2.30;;;;;;;21.41;50.54;94207.53;5104614;28;20205;-49
2023/04/19 09:16:37;;;;;;;2.45;2.35;;;;;;;21.60;50.29;94200.56;5091131;28;20192;-49
2023/04/19 09:19:04;;;;;;;2.38;2.17;;;;;;;21.85;49.93;94203.84;5091095;28;20214;-48
2023/04/19 09:21:31;;;;;;;1.90;1.80;;;;;;;22.05;49.88;94201.00;5091109;28;20197;-48
2023/04/19 09:24:00;;;;;;;2.15;2.05;;;;;;;22.25;49.68;94201.56;5091117;28;20182;-48
2023/04/19 09:26:28;;;;;;;2.05;1.90;;;;;;;22.46;49.56;94195.03;5091227;28;20193;-49
2023/04/19 09:29:00;;;;;;;2.75;2.17;;;;;;;22.65;49.54;94187.94;5091035;28;20514;-47
2023/04/19 09:31:28;;;;;;;2.40;2.20;;;;;;;22.86;49.30;94194.41;5090732;28;20201;-50
2023/04/19 09:33:55;;;;;;;2.28;2.13;;;;;;;23.00;48.88;94185.38;5090974;28;20697;-47
2023/04/19 09:36:29;;;;;;;2.38;2.13;;;;;;;23.35;48.56;94184.56;5090999;28;20288;-48
2023/04/19 09:38:56;;;;;;;2.65;2.13;;;;;;;23.61;48.44;94192.91;5090881;28;20276;-49
2023/04/19 09:41:25;;;;;;;2.08;1.98;;;;;;;23.87;47.88;94192.41;5090826;28;20240;-47
2023/04/19 09:43:52;;;;;;;2.13;2.03;;;;;;;24.15;47.49;94196.09;5090527;28;20607;-47
2023/04/19 09:46:33;;;;;;;1.92;1.70;;;;;;;24.31;47.49;94181.44;5091308;28;20738;-51
2023/04/19 09:49:19;;;;;;;2.15;2.00;;;;;;;24.52;47.07;94192.06;5090154;28;20204;-49
2023/04/19 09:51:47;;;;;;;2.45;2.20;;;;;;;24.64;47.16;94193.81;5090790;28;20657;-49
2023/04/19 09:54:16;;;;;;;1.83;1.73;;;;;;;24.75;46.92;94190.34;5091859;28;20186;-48
2023/04/19 09:56:44;;;;;;;1.90;1.80;;;;;;;24.89;46.43;94180.34;5091314;28;20254;-47
2023/04/19 09:59:12;;;;;;;3.50;1.98;;;;;;;24.97;46.51;94183.34;5090461;28;20214;-48
2023/04/19 10:01:40;;;;;;;1.88;1.77;;;;;;;24.93;46.24;94177.00;5100265;28;20185;-49
2023/04/19 10:04:09;;;;;;;1.92;1.83;;;;;;;24.87;46.16;94185.00;5111210;28;20218;-47
2023/04/19 10:06:37;;;;;;;2.95;1.80;;;;;;;24.81;46.24;94175.50;5111166;28;20181;-50
2023/04/19 10:09:04;;;;;;;2.00;1.90;;;;;;;24.78;46.25;94179.38;5110660;28;20233;-49
2023/04/19 10:11:37;;;;;;;2.30;2.10;;;;;;;24.80;45.89;94174.72;5111264;28;20197;-47
2023/04/19 10:14:07;;;;;;;2.40;2.20;;;;;;;24.64;45.41;94155.38;5109877;28;20188;-49
2023/04/19 10:16:35;;;;;;;1.95;1.85;;;;;;;24.68;45.36;94163.53;5111186;28;20218;-48
2023/04/19 10:19:04;;;;;;;2.10;1.85;;;;;;;24.61;45.56;94166.31;5110733;28;20254;-51
2023/04/19 10:21:32;;;;;;;1.90;1.80;;;;;;;24.54;45.53;94168.28;5110773;28;20193;-49
2023/04/19 10:23:59;;;;;;;1.95;1.85;;;;;;;24.40;45.21;94159.97;5110322;28;20267;-50
2023/04/19 10:26:26;;;;;;;2.03;1.92;;;;;;;24.42;45.30;94164.94;5110516;28;20193;-48
2023/04/19 10:28:56;;;;;;;1.90;1.80;;;;;;;24.23;45.07;94146.06;5110636;28;20200;-51
2023/04/19 10:31:25;;;;;;;2.20;2.10;;;;;;;24.37;45.25;94159.63;5110230;28;20193;-49
2023/04/19 10:33:53;;;;;;;3.15;1.95;;;;;;;24.34;45.19;94166.09;5110768;28;20612;-51
2023/04/19 10:36:21;;;;;;;5.85;1.88;;;;;;;24.29;44.88;94153.72;5110234;28;20185;-51
2023/04/19 10:38:51;;;;;;;4.43;1.70;;;;;;;24.34;46.00;94162.69;5110694;28;20565;-48
2023/04/19 10:41:18;;;;;;;2.10;2.00;;;;;;;24.02;46.24;94095.28;5110505;28;20267;-48
2023/04/19 10:43:47;;;;;;;3.95;2.20;;;;;;;24.41;46.47;94152.91;5110701;28;20189;-48
2023/04/19 10:46:16;;;;;;;2.00;1.90;;;;;;;24.42;46.40;94149.25;5110093;28;20196;-49
2023/04/19 10:48:57;;;;;;;2.60;2.10;;;;;;;24.42;46.66;94147.44;5110513;28;20616;-49
2023/04/19 10:51:27;;;;;;;2.10;2.00;;;;;;;24.40;46.43;94143.50;5110215;28;20207;-49
2023/04/19 10:53:57;;;;;;;3.53;1.98;;;;;;;24.33;46.98;94143.59;5110599;28;20763;-49
2023/04/19 10:57:10;;;;;;;1.95;1.85;;;;;;;24.36;46.37;94135.31;5110314;28;20189;-50
2023/04/19 10:59:39;;;;;;;1.92;1.83;;;;;;;24.37;46.71;94142.13;5109802;28;20211;-48
2023/04/19 11:02:31;;;;;;;2.30;2.10;;;;;;;24.33;46.43;94127.94;5110385;28;20192;-50
2023/04/19 11:05:01;;;;;;;1.98;1.88;;;;;;;24.34;46.52;94131.31;5109524;28;20553;-49
2023/04/19 11:07:28;;;;;;;2.53;2.33;;;;;;;24.33;46.46;94127.13;5109741;28;20696;-49
2023/04/19 11:09:55;;;;;;;2.38;2.17;;;;;;;24.31;46.37;94126.56;5110250;28;20232;-49
2023/04/19 11:12:22;;;;;;;2.17;2.00;;;;;;;24.33;46.02;94130.53;5110532;28;20200;-49
2023/04/19 11:14:51;;;;;;;2.33;2.13;;;;;;;24.33;46.33;94121.91;5106236;28;20193;-48
2023/04/19 11:17:24;;;;;;;2.30;2.20;;;;;;;24.34;46.29;94118.25;5108060;28;20749;-48
2023/04/19 11:19:54;;;;;;;2.50;2.30;;;;;;;24.28;45.62;94118.19;5107614;28;20249;-49
2023/04/19 11:22:30;;;;;;;2.35;2.10;;;;;;;24.22;45.84;94110.47;5107735;28;20220;-49
2023/04/19 11:24:56;;;;;;;2.10;2.00;;;;;;;24.24;45.69;94111.84;5107010;28;20189;-49
2023/04/19 11:27:24;;;;;;;3.42;2.00;;;;;;;24.25;45.67;94118.66;5107402;28;20200;-49
2023/04/19 11:29:51;;;;;;;1.75;1.65;;;;;;;24.21;45.35;94107.06;5107354;28;20189;-49
2023/04/19 11:32:21;;;;;;;2.30;2.10;;;;;;;24.21;45.36;94120.16;5107798;28;20201;-49
2023/04/19 11:34:48;;;;;;;2.22;1.90;;;;;;;24.20;45.21;94117.78;5106613;28;20193;-48
2023/04/19 11:37:15;;;;;;;3.40;1.90;;;;;;;24.19;45.47;94121.44;5107637;28;20208;-47